Time;durP1;ratioP1;P1;durP2;ratioP2;P2;SDS_P1;SDS_P2;PMS_P1;PMS_P2;Temp;Humidity;BMP_temperature;BMP_pressure;BME280_temperature;BME280_humidity;BME280_pressure;Samples;Min_cycle;Max_cycle;Signal;HPM_P1;HPM_P2
2021/04/11 00:02:09;;;;;;;6.38;4.38;;;;;;;5.81;70.04;101130.78;5003046;28;20030;-87
2021/04/11 00:04:36;;;;;;;4.75;2.95;;;;;;;5.77;69.94;101129.03;5004692;28;20037;-85
2021/04/11 00:07:10;;;;;;;5.85;3.47;;;;;;;5.99;69.42;101137.91;5009609;28;20385;-87
2021/04/11 00:09:46;;;;;;;3.85;2.85;;;;;;;5.82;70.12;101131.69;5007833;28;20037;-86
2021/04/11 00:12:23;;;;;;;5.22;3.03;;;;;;;5.87;70.15;101131.69;5002140;28;20057;-86
2021/04/11 00:14:59;;;;;;;4.55;3.38;;;;;;;6.05;69.68;101126.53;5016085;28;20053;-86
2021/04/11 00:17:25;;;;;;;5.70;3.05;;;;;;;6.05;68.96;101126.53;5006856;28;20034;-86
2021/04/11 00:19:52;;;;;;;4.35;3.00;;;;;;;6.08;68.82;101141.44;5002985;28;20018;-86
2021/04/11 00:22:19;;;;;;;4.70;3.35;;;;;;;5.95;69.25;101140.50;5000306;28;20038;-87
2021/04/11 00:24:45;;;;;;;6.78;3.20;;;;;;;6.11;68.83;101133.56;5002174;28;20033;-87
2021/04/11 00:27:12;;;;;;;4.25;3.42;;;;;;;6.09;68.80;101128.31;4998808;28;20045;-91
2021/04/11 00:29:41;;;;;;;4.85;3.30;;;;;;;5.99;69.09;101126.50;5000669;28;20064;-86
2021/04/11 00:32:08;;;;;;;8.23;4.18;;;;;;;6.10;68.50;101113.38;5000370;28;20034;-86
2021/04/11 00:34:35;;;;;;;5.18;3.60;;;;;;;6.15;68.94;101116.91;5000948;28;20023;-87
2021/04/11 00:37:01;;;;;;;7.78;4.47;;;;;;;6.15;68.95;101119.53;4996962;28;20026;-87
2021/04/11 00:39:28;;;;;;;7.25;3.95;;;;;;;5.88;69.66;101128.19;4996712;28;20033;-86
2021/04/11 00:42:00;;;;;;;5.65;3.63;;;;;;;5.70;70.62;101139.50;5000969;28;20061;-87
2021/04/11 00:44:27;;;;;;;7.10;4.30;;;;;;;5.61;70.89;101140.34;5001517;28;20054;-86
2021/04/11 00:46:56;;;;;;;5.68;4.18;;;;;;;5.76;70.66;101123.75;4999302;28;20033;-89
2021/04/11 00:49:44;;;;;;;7.47;4.53;;;;;;;5.89;70.16;101127.31;4998871;28;20375;-90
2021/04/11 00:52:19;;;;;;;5.25;4.22;;;;;;;5.83;70.38;101126.41;5002074;28;20018;-87
2021/04/11 00:54:51;;;;;;;8.32;4.63;;;;;;;6.02;69.90;101126.53;5003416;28;20042;-87
2021/04/11 00:57:18;;;;;;;6.63;4.28;;;;;;;5.93;70.15;101134.34;4999461;28;20037;-89
2021/04/11 00:59:45;;;;;;;9.30;4.80;;;;;;;6.07;69.74;101119.53;4998152;28;20027;-88
2021/04/11 01:02:12;;;;;;;6.78;4.78;;;;;;;6.05;69.67;101108.09;5000226;28;20026;-86
2021/04/11 01:04:38;;;;;;;8.30;4.80;;;;;;;6.05;69.67;101110.72;5001653;28;20029;-90
2021/04/11 01:07:12;;;;;;;6.70;4.32;;;;;;;6.18;69.51;101113.41;4999761;28;20026;-87
2021/04/11 01:09:43;;;;;;;7.68;4.22;;;;;;;5.95;70.46;101115.06;4998891;28;20454;-87
2021/04/11 01:12:13;;;;;;;6.90;3.90;;;;;;;5.83;70.66;101105.38;4999327;28;20026;-87
2021/04/11 01:14:41;;;;;;;4.75;3.75;;;;;;;5.97;70.00;101107.19;5002630;28;20104;-86
2021/04/11 01:17:10;;;;;;;6.05;3.75;;;;;;;5.93;70.54;101110.66;5000131;28;20045;-87
2021/04/11 01:19:39;;;;;;;8.35;4.43;;;;;;;6.11;69.92;101113.38;4995048;28;20438;-86
2021/04/11 01:22:32;;;;;;;4.72;3.70;;;;;;;6.05;70.05;101105.47;4998180;28;20031;-88
2021/04/11 01:25:06;;;;;;;7.30;3.90;;;;;;;5.74;70.89;101107.97;5005970;28;20027;-87
2021/04/11 01:27:36;;;;;;;7.00;3.83;;;;;;;5.83;70.70;101102.75;4999108;28;20046;-87
2021/04/11 01:33:13;;;;;;;6.85;3.50;;;;;;;5.85;70.87;101101.88;5068967;27;20425;-86
2021/04/11 01:35:40;;;;;;;5.68;4.05;;;;;;;5.93;70.34;101108.03;5066955;28;20052;-87
2021/04/11 01:38:09;;;;;;;6.00;3.88;;;;;;;5.92;70.43;101106.28;5066309;28;20079;-91
2021/04/11 01:43:28;;;;;;;8.35;4.03;;;;;;;5.73;70.78;101111.47;5097966;27;20359;-86
2021/04/11 01:45:56;;;;;;;7.53;4.40;;;;;;;5.86;70.89;101119.41;5078404;28;20040;-87
2021/04/11 01:48:27;;;;;;;7.22;4.45;;;;;;;5.69;71.40;101120.22;5084415;28;20483;-88
2021/04/11 01:50:58;;;;;;;5.03;4.15;;;;;;;5.82;70.89;101116.78;5079396;28;20064;-87
2021/04/11 01:53:27;;;;;;;7.17;4.50;;;;;;;5.76;70.76;101108.84;5082342;28;20025;-86
2021/04/11 01:55:55;;;;;;;6.50;3.75;;;;;;;5.92;70.54;101108.91;5092318;28;20035;-87
2021/04/11 01:58:22;;;;;;;7.38;4.32;;;;;;;5.78;70.33;101109.75;5089700;28;20051;-87
2021/04/11 02:01:00;;;;;;;7.30;4.22;;;;;;;5.74;71.21;101107.97;5096873;28;20024;-86
2021/04/11 02:03:26;;;;;;;8.63;4.10;;;;;;;5.88;70.64;101112.41;5090084;28;20088;-87
2021/04/11 02:05:53;;;;;;;4.97;4.00;;;;;;;5.95;70.69;101108.94;5094809;28;20028;-86
2021/04/11 02:08:23;;;;;;;9.32;4.72;;;;;;;5.90;71.03;101110.66;5097560;28;20031;-87
2021/04/11 02:10:53;;;;;;;4.88;3.63;;;;;;;5.94;70.54;101117.69;5101808;28;20044;-86
2021/04/11 02:13:29;;;;;;;5.57;3.58;;;;;;;5.73;70.82;101118.47;5092694;28;20594;-87
2021/04/11 02:15:58;;;;;;;6.40;3.08;;;;;;;5.53;71.23;101127.13;5099383;28;20028;-88
2021/04/11 02:18:26;;;;;;;7.63;3.65;;;;;;;5.74;70.99;101110.59;5096214;28;20585;-88
2021/04/11 02:20:55;;;;;;;7.95;3.60;;;;;;;5.83;70.75;101126.41;5086807;28;20083;-88
2021/04/11 02:23:24;;;;;;;6.82;3.53;;;;;;;5.88;70.38;101128.19;5076312;28;20021;-88
2021/04/11 02:25:52;;;;;;;5.10;3.42;;;;;;;5.83;70.35;101125.53;5078247;28;20059;-88
2021/04/11 02:28:23;;;;;;;4.15;2.88;;;;;;;5.73;70.87;101124.63;5086133;28;20037;-88
2021/04/11 02:30:55;;;;;;;7.78;3.67;;;;;;;5.85;70.35;101129.03;5080381;28;20069;-91
2021/04/11 02:33:30;;;;;;;7.72;3.30;;;;;;;5.88;70.01;101133.44;5081598;28;20077;-93
2021/04/11 02:35:57;;;;;;;6.47;4.03;;;;;;;6.15;69.31;101138.81;5079943;28;20101;-90
2021/04/11 02:38:23;;;;;;;5.07;3.38;;;;;;;6.02;69.47;101152.81;5084792;28;20031;-88
2021/04/11 02:40:52;;;;;;;5.30;3.80;;;;;;;5.87;70.02;101147.44;5081497;28;20383;-89
2021/04/11 02:43:19;;;;;;;5.15;3.70;;;;;;;6.03;69.37;101154.59;5083526;28;20079;-89
2021/04/11 02:45:47;;;;;;;6.43;4.47;;;;;;;5.96;69.49;101152.78;5080632;28;20021;-87
2021/04/11 02:48:15;;;;;;;12.10;4.57;;;;;;;6.11;69.24;101144.97;5085182;28;20082;-88
2021/04/11 02:50:43;;;;;;;7.30;3.90;;;;;;;5.86;69.99;101146.59;5086866;28;20035;-87
2021/04/11 02:53:15;;;;;;;8.00;3.92;;;;;;;6.03;69.46;101154.59;5072984;28;20033;-91
2021/04/11 02:55:43;;;;;;;9.18;4.22;;;;;;;5.83;69.73;101147.47;5075167;28;20127;-90
2021/04/11 02:58:13;;;;;;;6.40;4.60;;;;;;;5.86;69.91;101148.31;5066547;28;20025;-89
2021/04/11 03:00:49;;;;;;;5.88;3.58;;;;;;;5.82;70.05;101153.59;5075007;28;20110;-87
2021/04/11 03:03:16;;;;;;;9.52;4.22;;;;;;;5.84;69.55;101148.31;5064883;28;20031;-88
2021/04/11 03:05:43;;;;;;;9.40;4.05;;;;;;;6.02;69.18;101150.19;5067327;28;20063;-88
2021/04/11 03:08:13;;;;;;;7.32;4.35;;;;;;;5.83;69.87;101152.72;5061349;28;20029;-88
2021/04/11 03:10:53;;;;;;;6.15;3.90;;;;;;;5.96;69.29;101160.66;5068546;28;20032;-88
2021/04/11 03:13:23;;;;;;;9.77;4.13;;;;;;;5.98;69.39;101158.91;5062313;28;20029;-88
2021/04/11 03:15:54;;;;;;;10.68;4.85;;;;;;;6.00;69.38;101159.81;5061925;28;20052;-90
2021/04/11 03:18:21;;;;;;;8.55;3.88;;;;;;;6.04;69.18;101164.22;5069040;28;20039;-88
2021/04/11 03:20:48;;;;;;;6.03;3.90;;;;;;;5.80;69.85;101159.72;5072424;28;20125;-89
2021/04/11 03:23:16;;;;;;;6.57;3.50;;;;;;;5.65;70.21;101177.16;5061090;28;20029;-87
2021/04/11 03:25:43;;;;;;;11.38;3.78;;;;;;;6.09;68.77;101170.41;5061748;28;20041;-88
2021/04/11 03:28:19;;;;;;;5.32;3.30;;;;;;;6.20;68.53;101177.44;5064816;28;20112;-87
2021/04/11 03:31:04;;;;;;;9.13;3.50;;;;;;;6.18;68.97;101180.06;5059659;28;20517;-86
2021/04/11 03:33:37;;;;;;;8.73;3.72;;;;;;;6.06;69.02;101170.38;5061165;28;20029;-87
2021/04/11 03:36:07;;;;;;;5.20;3.15;;;;;;;6.03;69.65;101175.63;5064363;28;20025;-87
2021/04/11 03:38:34;;;;;;;5.68;3.08;;;;;;;5.61;70.86;101171.88;5061707;28;20059;-86
2021/04/11 03:41:01;;;;;;;4.93;3.15;;;;;;;5.56;71.19;101169.22;5057619;28;20159;-87
2021/04/11 03:43:34;;;;;;;5.47;3.08;;;;;;;5.42;71.84;101181.38;5066252;28;20039;-86
2021/04/11 03:46:09;;;;;;;6.68;4.25;;;;;;;5.64;71.05;101187.66;5062257;28;20025;-87
2021/04/11 03:48:44;;;;;;;6.47;3.35;;;;;;;5.70;70.86;101192.97;5065217;28;20013;-87
2021/04/11 03:51:19;;;;;;;7.90;2.92;;;;;;;5.33;71.89;101177.84;5063302;28;20052;-87
2021/04/11 03:56:35;;;;;;;6.82;2.72;;;;;;;5.57;71.39;101175.34;4992918;28;20872;-87
2021/04/11 03:59:04;;;;;;;7.50;2.90;;;;;;;5.21;71.95;101188.25;4989743;28;20034;-87
2021/04/11 04:01:39;;;;;;;3.70;1.98;;;;;;;5.53;71.13;101203.34;5003306;28;20034;-87
2021/04/11 04:04:11;;;;;;;6.20;2.10;;;;;;;5.44;70.97;101206.81;4993782;28;20380;-86
2021/04/11 04:06:38;;;;;;;9.32;2.15;;;;;;;5.40;71.27;101205.03;5005734;28;20484;-86
2021/04/11 04:09:05;;;;;;;6.47;2.30;;;;;;;5.54;71.14;101204.25;4992205;28;20046;-87
2021/04/11 04:12:06;;;;;;;4.18;2.03;;;;;;;5.35;71.70;101206.75;4988658;28;20050;-87
2021/04/11 04:15:01;;;;;;;14.13;2.47;;;;;;;5.58;70.94;101203.41;4992172;28;20029;-88
2021/04/11 04:17:55;;;;;;;3.58;1.90;;;;;;;5.62;70.88;101202.53;4994628;28;20129;-92
2021/04/11 04:20:43;;;;;;;4.97;1.90;;;;;;;5.51;71.10;101216.50;5005693;28;20030;-87
2021/04/11 04:23:24;;;;;;;4.03;1.80;;;;;;;5.40;71.27;101223.44;4991000;28;20118;-87
2021/04/11 04:34:24;;;;;;;6.53;1.80;;;;;;;5.57;70.78;101217.41;5073040;27;20417;-91
2021/04/11 04:37:08;;;;;;;3.97;1.60;;;;;;;5.48;70.61;101218.22;5045319;28;20108;-87
2021/04/11 04:39:49;;;;;;;6.95;1.70;;;;;;;5.33;71.22;101226.88;5032241;28;20451;-86
2021/04/11 04:45:39;;;;;;;11.52;3.05;;;;;;;5.48;70.91;101212.97;5073029;27;20409;-86
2021/04/11 04:48:26;;;;;;;5.68;2.28;;;;;;;5.51;70.12;101213.88;5047771;28;20052;-88
2021/04/11 04:53:44;;;;;;;2.65;1.88;;;;;;;5.48;70.76;101239.25;5120569;27;21257;-88
2021/04/11 04:56:17;;;;;;;2.33;1.55;;;;;;;5.47;70.49;101232.22;5115868;27;20074;-86
2021/04/11 04:58:52;;;;;;;4.03;1.80;;;;;;;5.30;70.26;101250.50;5113327;27;20041;-87
2021/04/11 05:01:25;;;;;;;7.32;2.15;;;;;;;5.41;70.13;101248.84;5124697;27;20490;-88
2021/04/11 05:03:57;;;;;;;6.32;2.35;;;;;;;5.55;70.14;101248.94;5126949;27;20039;-88
2021/04/11 05:14:46;;;;;;;3.83;1.95;;;;;;;5.51;69.76;101255.91;5130526;27;20357;-87
2021/04/11 05:17:25;;;;;;;2.83;1.50;;;;;;;5.40;69.76;101251.47;5120853;27;20028;-86
2021/04/11 05:19:58;;;;;;;7.47;1.80;;;;;;;5.38;69.68;101261.06;5116654;28;20553;-86
2021/04/11 05:30:51;;;;;;;6.78;1.50;;;;;;;5.46;69.10;101260.28;5083018;27;20427;-87
2021/04/11 05:33:22;;;;;;;6.80;2.78;;;;;;;5.43;69.40;101268.13;5059331;28;20033;-88
2021/04/11 05:35:57;;;;;;;9.70;2.20;;;;;;;5.47;69.47;101276.91;5054251;28;20051;-87
2021/04/11 05:38:35;;;;;;;3.78;1.65;;;;;;;5.49;69.41;101278.66;5034130;28;20151;-87
2021/04/11 05:41:13;;;;;;;11.63;2.55;;;;;;;5.71;69.04;101291.09;5046629;28;20141;-87
2021/04/11 05:46:46;;;;;;;5.47;1.75;;;;;;;5.74;68.87;101305.16;5142708;27;20366;-86
2021/04/11 05:49:19;;;;;;;4.22;1.88;;;;;;;5.49;69.00;101309.34;5101603;28;20051;-87
2021/04/11 05:51:53;;;;;;;8.05;2.55;;;;;;;5.75;68.75;101312.19;5092066;28;20028;-87
2021/04/11 05:57:07;;;;;;;5.15;2.08;;;;;;;5.89;68.30;101324.56;5067769;27;20857;-87
2021/04/11 05:59:45;;;;;;;4.68;2.28;;;;;;;5.87;68.28;101321.03;5057569;28;20068;-87
2021/04/11 06:02:18;;;;;;;4.78;2.00;;;;;;;5.61;68.49;101329.63;5051077;28;20045;-87
2021/04/11 06:07:43;;;;;;;5.90;1.65;;;;;;;5.78;68.35;101332.34;5035401;28;20867;-87
2021/04/11 06:10:16;;;;;;;5.78;1.80;;;;;;;5.93;67.87;101340.38;5018184;28;20418;-90
2021/04/11 06:12:51;;;;;;;5.13;2.42;;;;;;;5.88;67.46;101343.81;5022066;28;20024;-89
2021/04/11 06:15:39;;;;;;;5.00;1.88;;;;;;;5.82;67.43;101356.06;5070628;28;20509;-89
2021/04/11 06:18:08;;;;;;;9.95;2.50;;;;;;;5.76;67.14;101356.00;5028946;28;20033;-87
2021/04/11 06:20:36;;;;;;;5.90;1.40;;;;;;;5.83;67.69;101368.34;5033452;28;20026;-88
2021/04/11 06:23:27;;;;;;;11.10;1.92;;;;;;;5.99;67.44;101369.38;5006421;28;20076;-87
2021/04/11 06:26:08;;;;;;;5.63;1.10;;;;;;;6.08;66.97;101368.56;5052915;28;20036;-89
2021/04/11 06:31:29;;;;;;;4.10;1.38;;;;;;;5.50;68.12;101359.28;5071610;27;20417;-87
2021/04/11 06:34:10;;;;;;;2.75;1.45;;;;;;;5.78;67.24;101363.91;5069420;28;20040;-88
2021/04/11 06:36:41;;;;;;;6.38;1.63;;;;;;;6.00;67.04;101365.00;5063398;28;20102;-86
2021/04/11 06:39:27;;;;;;;7.50;1.58;;;;;;;6.01;67.40;101371.13;5042615;28;20040;-88
2021/04/11 06:42:23;;;;;;;7.43;2.50;;;;;;;5.99;67.41;101384.28;5038231;28;20048;-87
2021/04/11 06:45:29;;;;;;;6.13;1.23;;;;;;;6.05;67.36;101384.31;5039064;28;20369;-87
2021/04/11 06:51:49;;;;;;;3.58;1.33;;;;;;;6.35;66.80;101381.91;5089872;27;20434;-88
2021/04/11 06:54:55;;;;;;;6.47;1.10;;;;;;;6.23;67.15;101369.53;5070547;28;20037;-89
2021/04/11 07:03:20;;;;;;;4.32;1.65;;;;;;;6.39;66.09;101379.31;5072142;28;21118;-90
2021/04/11 07:08:58;;;;;;;3.95;1.42;;;;;;;6.61;65.77;101379.41;5096981;27;20369;-87
2021/04/11 07:14:32;;;;;;;5.38;1.35;;;;;;;6.59;65.73;101360.06;5105318;27;20400;-87
2021/04/11 07:17:26;;;;;;;3.78;1.13;;;;;;;6.80;65.47;101375.09;5063235;28;20037;-89
2021/04/11 07:23:04;;;;;;;4.35;1.40;;;;;;;6.79;64.47;101379.50;5072770;27;21252;-87
2021/04/11 07:25:47;;;;;;;3.78;1.60;;;;;;;6.95;64.19;101382.16;5068611;28;20068;-89
2021/04/11 07:31:20;;;;;;;6.75;1.70;;;;;;;6.93;63.57;101387.44;5077080;27;20412;-88
2021/04/11 07:40:02;;;;;;;7.90;1.80;;;;;;;6.92;63.39;101396.22;5071529;28;20372;-87
2021/04/11 07:45:44;;;;;;;5.28;1.40;;;;;;;7.11;63.58;101415.59;5076587;27;20833;-86
2021/04/11 08:10:42;;;;;;;5.95;1.52;;;;;;;7.25;62.02;101444.66;5075834;27;20409;-86
2021/04/11 08:16:01;;;;;;;8.85;1.67;;;;;;;7.44;61.70;101445.59;5083977;27;20428;-86
2021/04/11 08:19:07;;;;;;;6.47;1.65;;;;;;;7.45;61.71;101452.63;5041208;28;20100;-88
2021/04/11 08:27:33;;;;;;;6.47;1.40;;;;;;;7.29;60.34;101464.88;5086273;27;20408;-87
2021/04/11 08:38:58;;;;;;;4.07;1.63;;;;;;;7.32;59.33;101474.53;5065759;27;20406;-87
2021/04/11 08:50:27;;;;;;;4.18;1.10;;;;;;;7.50;58.29;101489.56;5072466;27;20449;-85
2021/04/11 09:02:00;;;;;;;4.53;1.15;;;;;;;7.41;56.42;101500.97;5075810;27;20406;-85
2021/04/11 09:18:37;;;;;;;6.82;1.20;;;;;;;8.09;56.54;101516.94;5107121;27;20700;-86
2021/04/11 09:21:15;;;;;;;3.10;1.17;;;;;;;8.24;56.34;101509.91;5092314;28;20032;-88
2021/04/11 09:32:14;;;;;;;3.90;0.90;;;;;;;8.58;53.48;101517.84;5079613;28;20413;-87
2021/04/11 09:38:28;;;;;;;2.92;0.90;;;;;;;8.83;53.34;101515.19;5114399;27;20419;-87
2021/04/11 09:41:35;;;;;;;2.35;1.05;;;;;;;8.94;53.29;101523.97;5107178;28;20205;-89
2021/04/11 09:44:18;;;;;;;2.20;0.82;;;;;;;8.92;53.55;101520.44;5107069;28;20047;-88
2021/04/11 09:55:24;;;;;;;2.97;0.63;;;;;;;8.62;50.83;101532.81;5073381;27;20409;-85
2021/04/11 09:58:18;;;;;;;1.80;0.63;;;;;;;8.82;52.26;101530.16;5054732;28;20075;-85
2021/04/11 10:01:00;;;;;;;2.53;0.70;;;;;;;8.90;51.57;101527.50;5047284;28;20086;-86
2021/04/11 10:03:56;;;;;;;4.53;0.80;;;;;;;9.04;50.90;101530.97;5047608;28;20026;-88
2021/04/11 10:06:51;;;;;;;1.52;0.63;;;;;;;8.91;50.90;101529.28;5039034;28;20033;-88
2021/04/11 10:09:45;;;;;;;1.80;0.70;;;;;;;9.21;51.56;101530.06;5041401;28;20480;-87
2021/04/11 10:15:33;;;;;;;2.03;0.80;;;;;;;9.11;49.97;101538.88;5068083;27;20411;-87
2021/04/11 10:18:32;;;;;;;2.85;0.77;;;;;;;9.10;50.12;101548.59;5059799;28;20028;-87
2021/04/11 10:21:13;;;;;;;8.13;1.38;;;;;;;8.94;51.39;101542.47;5057428;28;20487;-87
2021/04/11 10:26:54;;;;;;;4.55;1.42;;;;;;;8.82;50.63;101555.69;5061724;28;20728;-88
2021/04/11 10:29:26;;;;;;;5.07;0.95;;;;;;;8.76;50.50;101571.56;5056059;28;20095;-85
2021/04/11 10:35:44;;;;;;;2.83;0.88;;;;;;;9.02;50.57;101569.78;5064412;27;20521;-89
2021/04/11 10:38:23;;;;;;;3.85;0.90;;;;;;;9.07;51.23;101573.28;5059778;28;20037;-85
2021/04/11 10:41:07;;;;;;;1.27;0.68;;;;;;;9.47;51.13;101574.03;5057138;28;20087;-85
2021/04/11 10:44:06;;;;;;;1.77;0.60;;;;;;;9.52;50.35;101574.88;5055141;28;20029;-88
2021/04/11 10:47:02;;;;;;;4.05;1.80;;;;;;;9.64;50.31;101577.50;5054143;28;20036;-83
2021/04/11 10:52:52;;;;;;;1.88;0.75;;;;;;;10.10;49.47;101578.16;5050206;28;20370;-84
2021/04/11 10:55:48;;;;;;;1.20;0.57;;;;;;;10.18;49.66;101582.50;5042495;28;20068;-83
2021/04/11 11:01:23;;;;;;;6.53;0.88;;;;;;;10.40;49.04;101578.88;5075106;28;20417;-90
2021/04/11 11:04:29;;;;;;;1.50;0.75;;;;;;;10.87;49.43;101582.03;5064947;28;20090;-87
2021/04/11 11:12:52;;;;;;;5.72;0.98;;;;;;;11.19;47.69;101581.69;5085336;27;20417;-86
2021/04/11 11:28:03;;;;;;;3.85;0.73;;;;;;;10.55;43.52;101607.88;5064733;27;20140;-86
2021/04/11 11:31:09;;;;;;;5.18;1.20;;;;;;;10.48;44.27;101612.34;5041840;28;20870;-89
2021/04/11 11:36:33;;;;;;;3.10;1.23;;;;;;;11.12;43.11;101615.34;5125006;27;20127;-86
2021/04/11 11:39:24;;;;;;;3.17;0.90;;;;;;;11.22;43.46;101607.31;5102004;28;20104;-85
2021/04/11 11:47:31;;;;;;;6.03;0.77;;;;;;;11.43;43.35;101619.47;5081557;27;20369;-86
2021/04/11 11:50:26;;;;;;;1.08;0.70;;;;;;;11.62;44.19;101636.91;5064822;28;20037;-86
2021/04/11 11:53:15;;;;;;;4.70;1.08;;;;;;;11.42;44.42;101623.88;5060885;28;20039;-88
2021/04/11 11:55:54;;;;;;;2.38;0.80;;;;;;;11.18;43.77;101635.63;5066031;28;20074;-87
2021/04/11 11:58:29;;;;;;;2.70;0.60;;;;;;;11.47;43.76;101631.78;5067065;28;20593;-88
2021/04/11 12:01:34;;;;;;;3.17;0.80;;;;;;;11.45;43.42;101634.47;5074790;28;20041;-87
2021/04/11 12:04:30;;;;;;;1.75;0.73;;;;;;;11.66;43.01;101637.75;5074480;28;20053;-89
2021/04/11 12:07:01;;;;;;;3.40;0.70;;;;;;;11.56;42.89;101636.97;5062021;28;20514;-87
2021/04/11 12:09:36;;;;;;;3.85;1.23;;;;;;;11.62;43.11;101647.53;5056541;28;20120;-89
2021/04/11 12:12:14;;;;;;;1.25;0.68;;;;;;;11.49;43.32;101649.44;5064324;28;20072;-87
2021/04/11 12:15:00;;;;;;;3.78;0.98;;;;;;;11.60;43.21;101654.66;5063134;28;20027;-86
2021/04/11 12:23:08;;;;;;;4.38;1.25;;;;;;;11.97;42.01;101674.59;5088435;27;20377;-87
2021/04/11 12:25:37;;;;;;;2.28;0.93;;;;;;;11.91;42.55;101664.00;5050871;28;20060;-85
2021/04/11 12:28:22;;;;;;;3.30;1.20;;;;;;;12.10;43.88;101677.97;5048997;28;20102;-84
2021/04/11 12:30:50;;;;;;;5.43;1.02;;;;;;;12.02;42.42;101672.75;5047668;28;20103;-85
2021/04/11 12:33:25;;;;;;;2.08;1.02;;;;;;;12.31;41.81;101663.50;5046589;28;20123;-85
2021/04/11 12:36:18;;;;;;;10.52;4.20;;;;;;;12.53;41.61;101671.19;5048773;28;20034;-84
2021/04/11 12:38:47;;;;;;;;;;;;;;;12.57;42.23;101679.09;5049853;28;20374;-84
2021/04/11 12:41:22;;;;;;;3.05;0.85;;;;;;;12.58;41.53;101694.13;5045949;28;20394;-86
2021/04/11 12:44:01;;;;;;;5.97;1.98;;;;;;;11.94;42.30;101678.13;5049267;28;20033;-86
2021/04/11 12:49:17;;;;;;;3.08;1.02;;;;;;;12.04;41.76;101691.34;5096200;27;20376;-85
2021/04/11 12:54:44;;;;;;;7.93;2.30;;;;;;;12.25;41.98;101704.34;5061160;27;772185;-85
2021/04/11 12:57:26;;;;;;;5.05;1.23;;;;;;;12.21;41.47;101699.97;5060498;28;20113;-85
2021/04/11 13:06:06;;;;;;;4.43;1.02;;;;;;;12.26;42.04;101719.41;5072512;27;20447;-84
2021/04/11 13:14:43;;;;;;;4.05;0.80;;;;;;;11.98;40.91;101717.06;5070743;27;20829;-85
2021/04/11 13:17:23;;;;;;;4.22;0.90;;;;;;;12.29;40.80;101721.13;5055042;28;20393;-84
2021/04/11 13:19:59;;;;;;;6.03;0.85;;;;;;;12.42;40.61;101736.03;5038291;28;20113;-83
2021/04/11 13:22:34;;;;;;;2.13;0.90;;;;;;;12.48;41.01;101731.53;5037447;28;20046;-83
2021/04/11 13:27:57;;;;;;;6.90;0.95;;;;;;;12.03;40.99;101732.09;5058824;28;20440;-83
2021/04/11 13:30:29;;;;;;;2.15;0.65;;;;;;;11.85;41.05;101736.69;5049671;28;20036;-84
2021/04/11 13:33:19;;;;;;;3.60;1.00;;;;;;;12.09;41.64;101726.69;5056567;28;20460;-84
2021/04/11 13:35:56;;;;;;;2.10;0.90;;;;;;;12.29;41.98;101729.97;5048426;28;20037;-85
2021/04/11 13:38:42;;;;;;;2.30;0.70;;;;;;;12.67;40.41;101740.09;5049257;28;20040;-84
2021/04/11 13:41:32;;;;;;;3.13;0.80;;;;;;;12.41;39.37;101749.31;5049135;28;20067;-85
2021/04/11 13:44:29;;;;;;;4.25;0.90;;;;;;;12.59;37.35;101741.09;5049888;28;20116;-84
2021/04/11 13:47:24;;;;;;;2.70;0.60;;;;;;;12.99;38.59;101741.41;5048899;28;20037;-86
2021/04/11 13:58:18;;;;;;;8.38;1.58;;;;;;;13.31;37.81;101758.63;5059157;28;20941;-83
2021/04/11 14:03:55;;;;;;;2.38;0.57;;;;;;;13.06;36.97;101759.91;5060458;28;20385;-83
2021/04/11 14:06:33;;;;;;;4.03;0.85;;;;;;;13.12;37.31;101756.25;5037001;28;20037;-84
2021/04/11 14:17:34;;;;;;;1.30;0.45;;;;;;;12.71;36.95;101769.28;5051811;28;20425;-84
2021/04/11 14:23:12;;;;;;;5.53;1.10;;;;;;;12.42;37.31;101761.69;5072232;27;20413;-84
2021/04/11 14:25:47;;;;;;;2.42;0.63;;;;;;;12.61;38.39;101768.53;5055623;28;20044;-85
2021/04/11 14:31:12;;;;;;;3.40;0.90;;;;;;;12.95;36.76;101772.50;5097870;27;20380;-85
2021/04/11 14:33:53;;;;;;;4.45;0.82;;;;;;;13.13;36.43;101771.31;5087769;28;20054;-84
2021/04/11 14:36:21;;;;;;;3.65;0.70;;;;;;;13.29;36.24;101781.75;5086783;28;20028;-85
2021/04/11 14:38:54;;;;;;;4.38;0.90;;;;;;;13.53;36.64;101781.38;5085748;28;20508;-84
2021/04/11 14:41:35;;;;;;;4.45;0.90;;;;;;;13.52;36.44;101787.59;5083079;28;20074;-85
2021/04/11 14:44:02;;;;;;;2.22;0.80;;;;;;;13.58;35.16;101778.59;5076592;28;20033;-86
2021/04/11 14:49:16;;;;;;;2.78;0.60;;;;;;;13.11;35.62;101797.09;5070770;27;20444;-87
2021/04/11 14:54:58;;;;;;;1.80;0.70;;;;;;;12.85;35.00;101809.00;5070451;27;20374;-80
2021/04/11 14:57:59;;;;;;;6.10;2.00;;;;;;;12.92;37.00;101821.31;5047411;28;20362;-78
2021/04/11 15:00:36;;;;;;;3.75;0.90;;;;;;;12.60;39.41;101824.41;5048583;28;20025;-84
2021/04/11 15:06:15;;;;;;;5.57;1.13;;;;;;;12.02;41.06;101829.47;5057804;27;20411;-89
2021/04/11 15:08:55;;;;;;;2.45;0.77;;;;;;;12.27;40.47;101838.06;5049640;28;20029;-85
2021/04/11 15:11:33;;;;;;;3.80;0.80;;;;;;;12.53;40.25;101838.66;5052990;28;20112;-84
2021/04/11 15:17:07;;;;;;;1.20;0.70;;;;;;;12.82;37.98;101850.69;5041685;28;21001;-85
2021/04/11 15:25:13;;;;;;;2.47;0.90;;;;;;;12.75;38.13;101849.91;5120289;27;20383;-83
2021/04/11 15:27:47;;;;;;;3.17;1.45;;;;;;;12.74;38.60;101850.81;5086984;28;20480;-83
2021/04/11 15:33:13;;;;;;;4.13;0.73;;;;;;;12.51;38.82;101851.97;5070470;27;20409;-88
2021/04/11 15:36:06;;;;;;;3.15;0.90;;;;;;;12.52;39.13;101858.16;5054404;28;20079;-87
2021/04/11 15:39:00;;;;;;;3.13;0.90;;;;;;;12.40;39.47;101861.81;5045316;28;20485;-89
2021/04/11 15:41:47;;;;;;;5.80;0.95;;;;;;;12.18;39.98;101861.19;5041089;28;20127;-85
2021/04/11 15:47:06;;;;;;;2.28;0.88;;;;;;;11.96;39.57;101864.94;5025373;28;20369;-87
2021/04/11 15:55:19;;;;;;;2.67;0.88;;;;;;;11.78;38.38;101873.06;5076314;27;20426;-87
2021/04/11 15:58:02;;;;;;;3.35;0.68;;;;;;;11.33;38.26;101889.31;5047290;28;20052;-85
2021/04/11 16:00:35;;;;;;;3.15;0.75;;;;;;;11.16;39.34;101884.09;5046637;28;20056;-85
2021/04/11 16:03:10;;;;;;;1.90;0.70;;;;;;;10.99;39.88;101889.47;5048006;28;20073;-83
2021/04/11 16:08:34;;;;;;;3.90;0.98;;;;;;;11.64;38.52;101889.97;5074385;27;20376;-82
2021/04/11 16:11:18;;;;;;;4.82;0.95;;;;;;;11.87;37.83;101886.22;5057888;28;20041;-85
2021/04/11 16:14:04;;;;;;;2.97;1.27;;;;;;;11.90;39.57;101891.53;5064030;28;20039;-81
2021/04/11 16:25:23;;;;;;;1.77;0.70;;;;;;;12.89;36.51;101894.94;5060235;27;20497;-85
2021/04/11 16:28:15;;;;;;;2.65;0.80;;;;;;;12.92;35.26;101900.22;5062398;28;20039;-85
2021/04/11 16:34:03;;;;;;;3.85;1.27;;;;;;;11.82;39.39;101919.91;5070287;27;21030;-84
2021/04/11 16:36:54;;;;;;;3.83;0.70;;;;;;;11.47;40.18;101923.72;5061082;28;20036;-85
2021/04/11 16:39:45;;;;;;;5.53;1.77;;;;;;;11.36;40.97;101920.25;5047219;28;20069;-85
2021/04/11 16:45:24;;;;;;;5.15;1.08;;;;;;;10.68;42.51;101938.22;5082999;28;20407;-84
2021/04/11 16:48:21;;;;;;;1.58;0.80;;;;;;;10.52;44.45;101941.78;5049479;28;20057;-84
2021/04/11 16:50:51;;;;;;;6.53;1.00;;;;;;;10.55;44.43;101947.06;5044176;28;20037;-84
2021/04/11 16:53:34;;;;;;;5.53;1.08;;;;;;;10.71;45.53;101947.06;5048218;28;20029;-85
2021/04/11 16:56:23;;;;;;;6.90;1.13;;;;;;;10.91;44.46;101954.94;5044222;28;20033;-83
2021/04/11 17:04:50;;;;;;;1.98;0.73;;;;;;;10.07;44.80;101976.25;5065692;27;20354;-84
2021/04/11 17:07:25;;;;;;;4.53;0.90;;;;;;;10.31;44.81;101979.75;5048914;28;20043;-85
2021/04/11 17:10:07;;;;;;;4.18;0.82;;;;;;;9.94;43.66;101985.03;5041895;28;20026;-84
2021/04/11 17:12:43;;;;;;;3.80;1.00;;;;;;;9.87;43.44;101987.69;5041232;28;20128;-84
2021/04/11 17:18:07;;;;;;;6.40;1.50;;;;;;;9.59;45.70;101999.09;5106221;27;20752;-81
2021/04/11 17:23:53;;;;;;;7.88;3.00;;;;;;;9.47;46.58;101989.34;5057791;28;20830;-86
2021/04/11 17:29:06;;;;;;;4.60;1.45;;;;;;;9.51;46.59;102001.72;5046639;28;20418;-87
2021/04/11 17:34:34;;;;;;;4.32;1.33;;;;;;;9.25;47.46;102009.56;5084364;27;20420;-85
2021/04/11 17:37:23;;;;;;;2.92;0.77;;;;;;;9.21;47.10;102008.69;5059537;28;20031;-86
2021/04/11 17:39:50;;;;;;;13.93;6.68;;;;;;;9.28;47.32;102009.56;5036684;28;20057;-85
2021/04/11 17:45:35;;;;;;;4.22;1.40;;;;;;;9.46;47.06;102009.66;5093074;27;20405;-86
2021/04/11 17:48:33;;;;;;;5.88;1.33;;;;;;;9.50;47.66;102015.84;5087567;28;20047;-86
2021/04/11 17:54:22;;;;;;;4.80;1.42;;;;;;;10.14;46.16;102024.78;5059216;28;20864;-85
2021/04/11 17:57:07;;;;;;;3.17;1.10;;;;;;;10.38;44.79;102023.06;5073799;28;20108;-81